sensor_id;sensor_type;location;lat;lon;timestamp;P1;durP1;ratioP1;P2;durP2;ratioP2
84133;SDS011;74235;48.688;9.708;2024-03-02T00:00:56;1.02;;;0.70;;
84133;SDS011;74235;48.688;9.708;2024-03-02T00:03:25;0.77;;;0.77;;
84133;SDS011;74235;48.688;9.708;2024-03-02T00:05:53;0.40;;;0.40;;
84133;SDS011;74235;48.688;9.708;2024-03-02T00:08:22;0.68;;;0.68;;
84133;SDS011;74235;48.688;9.708;2024-03-02T00:10:52;0.50;;;0.50;;
84133;SDS011;74235;48.688;9.708;2024-03-02T00:13:25;0.63;;;0.55;;
84133;SDS011;74235;48.688;9.708;2024-03-02T00:15:54;0.60;;;0.60;;
84133;SDS011;74235;48.688;9.708;2024-03-02T00:18:26;0.45;;;0.45;;
84133;SDS011;74235;48.688;9.708;2024-03-02T00:20:57;0.88;;;0.88;;
84133;SDS011;74235;48.688;9.708;2024-03-02T00:23:27;0.60;;;0.60;;
84133;SDS011;74235;48.688;9.708;2024-03-02T00:25:56;0.65;;;0.52;;
84133;SDS011;74235;48.688;9.708;2024-03-02T00:28:25;0.65;;;0.65;;
84133;SDS011;74235;48.688;9.708;2024-03-02T00:30:57;0.70;;;0.70;;
84133;SDS011;74235;48.688;9.708;2024-03-02T00:33:30;0.68;;;0.65;;
84133;SDS011;74235;48.688;9.708;2024-03-02T00:35:59;0.70;;;0.70;;
84133;SDS011;74235;48.688;9.708;2024-03-02T00:38:27;0.95;;;0.90;;
84133;SDS011;74235;48.688;9.708;2024-03-02T00:40:56;0.63;;;0.63;;
84133;SDS011;74235;48.688;9.708;2024-03-02T00:43:37;0.50;;;0.50;;
84133;SDS011;74235;48.688;9.708;2024-03-02T00:46:13;0.60;;;0.55;;
84133;SDS011;74235;48.688;9.708;2024-03-02T00:48:48;0.50;;;0.50;;
84133;SDS011;74235;48.688;9.708;2024-03-02T00:51:19;0.60;;;0.60;;
84133;SDS011;74235;48.688;9.708;2024-03-02T00:53:47;0.38;;;0.38;;
84133;SDS011;74235;48.688;9.708;2024-03-02T00:56:15;0.63;;;0.63;;
84133;SDS011;74235;48.688;9.708;2024-03-02T00:58:42;0.80;;;0.80;;
84133;SDS011;74235;48.688;9.708;2024-03-02T01:03:38;0.65;;;0.65;;
84133;SDS011;74235;48.688;9.708;2024-03-02T01:06:07;0.52;;;0.52;;
84133;SDS011;74235;48.688;9.708;2024-03-02T01:08:35;0.68;;;0.68;;
84133;SDS011;74235;48.688;9.708;2024-03-02T01:13:31;0.68;;;0.68;;
84133;SDS011;74235;48.688;9.708;2024-03-02T01:15:59;0.60;;;0.60;;
84133;SDS011;74235;48.688;9.708;2024-03-02T01:18:27;0.65;;;0.65;;
84133;SDS011;74235;48.688;9.708;2024-03-02T01:20:54;0.70;;;0.70;;
84133;SDS011;74235;48.688;9.708;2024-03-02T01:23:24;0.43;;;0.43;;
84133;SDS011;74235;48.688;9.708;2024-03-02T01:25:52;0.98;;;0.98;;
84133;SDS011;74235;48.688;9.708;2024-03-02T01:28:20;0.80;;;0.80;;
84133;SDS011;74235;48.688;9.708;2024-03-02T01:30:48;0.47;;;0.47;;
84133;SDS011;74235;48.688;9.708;2024-03-02T01:35:44;1.00;;;0.80;;
84133;SDS011;74235;48.688;9.708;2024-03-02T01:38:12;0.82;;;0.80;;
84133;SDS011;74235;48.688;9.708;2024-03-02T01:40:41;0.52;;;0.52;;
84133;SDS011;74235;48.688;9.708;2024-03-02T01:43:11;0.70;;;0.70;;
84133;SDS011;74235;48.688;9.708;2024-03-02T01:45:39;0.70;;;0.70;;
84133;SDS011;74235;48.688;9.708;2024-03-02T01:48:07;1.10;;;1.00;;
84133;SDS011;74235;48.688;9.708;2024-03-02T01:50:35;0.73;;;0.70;;
84133;SDS011;74235;48.688;9.708;2024-03-02T01:53:03;0.57;;;0.57;;
84133;SDS011;74235;48.688;9.708;2024-03-02T01:55:31;0.80;;;0.80;;
84133;SDS011;74235;48.688;9.708;2024-03-02T01:58:01;0.47;;;0.47;;
84133;SDS011;74235;48.688;9.708;2024-03-02T02:00:29;0.50;;;0.50;;
84133;SDS011;74235;48.688;9.708;2024-03-02T02:02:58;0.95;;;0.95;;
84133;SDS011;74235;48.688;9.708;2024-03-02T02:05:26;0.43;;;0.40;;
84133;SDS011;74235;48.688;9.708;2024-03-02T02:07:54;0.65;;;0.63;;
84133;SDS011;74235;48.688;9.708;2024-03-02T02:10:22;0.50;;;0.50;;
84133;SDS011;74235;48.688;9.708;2024-03-02T02:12:50;0.57;;;0.57;;
84133;SDS011;74235;48.688;9.708;2024-03-02T02:15:22;0.50;;;0.50;;
84133;SDS011;74235;48.688;9.708;2024-03-02T02:17:51;1.02;;;0.95;;
84133;SDS011;74235;48.688;9.708;2024-03-02T02:20:19;0.60;;;0.60;;
84133;SDS011;74235;48.688;9.708;2024-03-02T02:22:57;0.40;;;0.40;;
84133;SDS011;74235;48.688;9.708;2024-03-02T02:25:26;0.73;;;0.73;;
84133;SDS011;74235;48.688;9.708;2024-03-02T02:27:54;0.68;;;0.68;;
84133;SDS011;74235;48.688;9.708;2024-03-02T02:30:23;0.73;;;0.73;;
84133;SDS011;74235;48.688;9.708;2024-03-02T02:32:51;0.52;;;0.52;;
84133;SDS011;74235;48.688;9.708;2024-03-02T02:35:19;0.70;;;0.70;;
84133;SDS011;74235;48.688;9.708;2024-03-02T02:37:47;0.55;;;0.55;;
84133;SDS011;74235;48.688;9.708;2024-03-02T02:40:18;0.50;;;0.50;;
84133;SDS011;74235;48.688;9.708;2024-03-02T02:42:46;0.50;;;0.50;;
84133;SDS011;74235;48.688;9.708;2024-03-02T02:45:14;0.50;;;0.50;;
84133;SDS011;74235;48.688;9.708;2024-03-02T02:47:43;1.10;;;0.80;;
84133;SDS011;74235;48.688;9.708;2024-03-02T02:50:12;0.40;;;0.40;;
84133;SDS011;74235;48.688;9.708;2024-03-02T02:52:40;0.88;;;0.82;;
84133;SDS011;74235;48.688;9.708;2024-03-02T02:55:10;0.65;;;0.65;;
84133;SDS011;74235;48.688;9.708;2024-03-02T02:57:40;0.63;;;0.63;;
84133;SDS011;74235;48.688;9.708;2024-03-02T03:00:10;0.60;;;0.60;;
84133;SDS011;74235;48.688;9.708;2024-03-02T03:02:46;0.50;;;0.50;;
84133;SDS011;74235;48.688;9.708;2024-03-02T03:05:17;0.70;;;0.70;;
84133;SDS011;74235;48.688;9.708;2024-03-02T03:07:45;0.40;;;0.40;;
84133;SDS011;74235;48.688;9.708;2024-03-02T03:10:13;0.45;;;0.45;;
84133;SDS011;74235;48.688;9.708;2024-03-02T03:12:43;1.00;;;0.90;;
84133;SDS011;74235;48.688;9.708;2024-03-02T03:15:11;0.50;;;0.50;;
84133;SDS011;74235;48.688;9.708;2024-03-02T03:17:40;0.82;;;0.82;;
84133;SDS011;74235;48.688;9.708;2024-03-02T03:20:08;0.70;;;0.70;;
84133;SDS011;74235;48.688;9.708;2024-03-02T03:22:43;0.60;;;0.60;;
84133;SDS011;74235;48.688;9.708;2024-03-02T03:25:11;0.82;;;0.82;;
84133;SDS011;74235;48.688;9.708;2024-03-02T03:30:08;0.63;;;0.63;;
84133;SDS011;74235;48.688;9.708;2024-03-02T03:32:36;0.55;;;0.55;;
84133;SDS011;74235;48.688;9.708;2024-03-02T03:37:31;0.60;;;0.60;;
84133;SDS011;74235;48.688;9.708;2024-03-02T03:40:02;0.73;;;0.73;;
84133;SDS011;74235;48.688;9.708;2024-03-02T03:42:30;0.65;;;0.65;;
84133;SDS011;74235;48.688;9.708;2024-03-02T03:44:58;0.28;;;0.28;;
84133;SDS011;74235;48.688;9.708;2024-03-02T03:47:27;1.10;;;1.00;;
84133;SDS011;74235;48.688;9.708;2024-03-02T03:49:54;0.40;;;0.40;;
84133;SDS011;74235;48.688;9.708;2024-03-02T03:52:22;0.50;;;0.50;;
84133;SDS011;74235;48.688;9.708;2024-03-02T03:54:50;0.55;;;0.55;;
84133;SDS011;74235;48.688;9.708;2024-03-02T03:57:18;0.52;;;0.50;;
84133;SDS011;74235;48.688;9.708;2024-03-02T03:59:45;0.70;;;0.70;;
84133;SDS011;74235;48.688;9.708;2024-03-02T04:02:14;0.63;;;0.63;;
84133;SDS011;74235;48.688;9.708;2024-03-02T04:04:43;0.52;;;0.52;;
84133;SDS011;74235;48.688;9.708;2024-03-02T04:07:11;0.55;;;0.55;;
84133;SDS011;74235;48.688;9.708;2024-03-02T04:12:06;0.43;;;0.43;;
84133;SDS011;74235;48.688;9.708;2024-03-02T04:14:33;0.70;;;0.70;;
84133;SDS011;74235;48.688;9.708;2024-03-02T04:17:01;0.50;;;0.50;;
84133;SDS011;74235;48.688;9.708;2024-03-02T04:21:58;0.50;;;0.50;;
84133;SDS011;74235;48.688;9.708;2024-03-02T04:24:34;0.75;;;0.75;;
84133;SDS011;74235;48.688;9.708;2024-03-02T04:27:02;0.40;;;0.40;;
84133;SDS011;74235;48.688;9.708;2024-03-02T04:31:57;0.75;;;0.75;;
84133;SDS011;74235;48.688;9.708;2024-03-02T04:36:52;0.60;;;0.60;;
84133;SDS011;74235;48.688;9.708;2024-03-02T04:39:21;1.00;;;1.00;;
84133;SDS011;74235;48.688;9.708;2024-03-02T04:41:49;0.55;;;0.55;;
84133;SDS011;74235;48.688;9.708;2024-03-02T04:44:16;0.70;;;0.57;;
84133;SDS011;74235;48.688;9.708;2024-03-02T04:46:44;0.57;;;0.57;;
84133;SDS011;74235;48.688;9.708;2024-03-02T04:49:11;0.65;;;0.65;;
84133;SDS011;74235;48.688;9.708;2024-03-02T04:51:39;0.70;;;0.70;;
84133;SDS011;74235;48.688;9.708;2024-03-02T04:56:36;0.43;;;0.43;;
84133;SDS011;74235;48.688;9.708;2024-03-02T04:59:17;0.57;;;0.57;;
84133;SDS011;74235;48.688;9.708;2024-03-02T05:01:45;0.70;;;0.70;;
84133;SDS011;74235;48.688;9.708;2024-03-02T05:04:14;0.57;;;0.57;;
84133;SDS011;74235;48.688;9.708;2024-03-02T05:06:42;0.65;;;0.65;;
84133;SDS011;74235;48.688;9.708;2024-03-02T05:09:10;0.93;;;0.93;;
84133;SDS011;74235;48.688;9.708;2024-03-02T05:14:06;0.50;;;0.50;;
84133;SDS011;74235;48.688;9.708;2024-03-02T05:19:02;0.65;;;0.65;;
84133;SDS011;74235;48.688;9.708;2024-03-02T05:21:30;0.75;;;0.75;;
84133;SDS011;74235;48.688;9.708;2024-03-02T05:23:57;0.45;;;0.45;;
84133;SDS011;74235;48.688;9.708;2024-03-02T05:28:54;0.57;;;0.57;;
84133;SDS011;74235;48.688;9.708;2024-03-02T05:31:21;0.60;;;0.60;;
84133;SDS011;74235;48.688;9.708;2024-03-02T05:36:22;0.50;;;0.50;;
84133;SDS011;74235;48.688;9.708;2024-03-02T05:38:49;0.77;;;0.77;;
84133;SDS011;74235;48.688;9.708;2024-03-02T05:43:44;0.80;;;0.80;;
84133;SDS011;74235;48.688;9.708;2024-03-02T05:46:13;0.63;;;0.63;;
84133;SDS011;74235;48.688;9.708;2024-03-02T05:48:41;0.70;;;0.70;;
84133;SDS011;74235;48.688;9.708;2024-03-02T05:51:09;0.60;;;0.60;;
84133;SDS011;74235;48.688;9.708;2024-03-02T05:53:36;0.57;;;0.57;;
84133;SDS011;74235;48.688;9.708;2024-03-02T05:56:05;0.43;;;0.43;;
84133;SDS011;74235;48.688;9.708;2024-03-02T05:58:33;0.60;;;0.60;;
84133;SDS011;74235;48.688;9.708;2024-03-02T06:01:26;0.60;;;0.60;;
84133;SDS011;74235;48.688;9.708;2024-03-02T06:03:56;0.68;;;0.68;;
84133;SDS011;74235;48.688;9.708;2024-03-02T06:06:23;0.60;;;0.60;;
84133;SDS011;74235;48.688;9.708;2024-03-02T06:08:51;0.70;;;0.70;;
84133;SDS011;74235;48.688;9.708;2024-03-02T06:11:19;0.70;;;0.70;;
84133;SDS011;74235;48.688;9.708;2024-03-02T06:13:47;0.68;;;0.63;;
84133;SDS011;74235;48.688;9.708;2024-03-02T06:16:15;0.60;;;0.60;;
84133;SDS011;74235;48.688;9.708;2024-03-02T06:21:11;0.70;;;0.70;;
84133;SDS011;74235;48.688;9.708;2024-03-02T06:23:39;0.60;;;0.60;;
84133;SDS011;74235;48.688;9.708;2024-03-02T06:26:06;0.45;;;0.45;;
84133;SDS011;74235;48.688;9.708;2024-03-02T06:28:34;0.70;;;0.70;;
84133;SDS011;74235;48.688;9.708;2024-03-02T06:31:02;0.57;;;0.57;;
84133;SDS011;74235;48.688;9.708;2024-03-02T06:33:30;0.52;;;0.52;;
84133;SDS011;74235;48.688;9.708;2024-03-02T06:35:59;0.50;;;0.50;;
84133;SDS011;74235;48.688;9.708;2024-03-02T06:38:26;1.55;;;0.90;;
84133;SDS011;74235;48.688;9.708;2024-03-02T06:40:54;0.50;;;0.50;;
84133;SDS011;74235;48.688;9.708;2024-03-02T06:43:22;1.50;;;0.73;;
84133;SDS011;74235;48.688;9.708;2024-03-02T06:45:50;0.43;;;0.43;;
84133;SDS011;74235;48.688;9.708;2024-03-02T06:48:18;1.10;;;1.00;;
84133;SDS011;74235;48.688;9.708;2024-03-02T06:50:49;0.70;;;0.70;;
84133;SDS011;74235;48.688;9.708;2024-03-02T06:53:19;0.63;;;0.55;;
84133;SDS011;74235;48.688;9.708;2024-03-02T06:55:47;0.90;;;0.65;;
84133;SDS011;74235;48.688;9.708;2024-03-02T06:58:14;0.60;;;0.60;;
84133;SDS011;74235;48.688;9.708;2024-03-02T07:00:43;1.13;;;0.50;;
84133;SDS011;74235;48.688;9.708;2024-03-02T07:03:13;0.60;;;0.60;;
84133;SDS011;74235;48.688;9.708;2024-03-02T07:05:41;0.85;;;0.85;;
84133;SDS011;74235;48.688;9.708;2024-03-02T07:08:09;1.10;;;0.60;;
84133;SDS011;74235;48.688;9.708;2024-03-02T07:10:38;0.80;;;0.80;;
84133;SDS011;74235;48.688;9.708;2024-03-02T07:13:05;1.08;;;0.60;;
84133;SDS011;74235;48.688;9.708;2024-03-02T07:18:32;0.40;;;0.40;;
84133;SDS011;74235;48.688;9.708;2024-03-02T07:21:08;0.90;;;0.90;;
84133;SDS011;74235;48.688;9.708;2024-03-02T07:23:36;0.55;;;0.55;;
84133;SDS011;74235;48.688;9.708;2024-03-02T07:28:36;0.70;;;0.70;;
84133;SDS011;74235;48.688;9.708;2024-03-02T07:33:32;0.82;;;0.82;;
84133;SDS011;74235;48.688;9.708;2024-03-02T07:36:00;0.70;;;0.70;;
84133;SDS011;74235;48.688;9.708;2024-03-02T07:38:31;0.68;;;0.68;;
84133;SDS011;74235;48.688;9.708;2024-03-02T07:41:01;0.45;;;0.45;;
84133;SDS011;74235;48.688;9.708;2024-03-02T07:45:59;0.60;;;0.60;;
84133;SDS011;74235;48.688;9.708;2024-03-02T07:50:54;0.47;;;0.47;;
84133;SDS011;74235;48.688;9.708;2024-03-02T07:55:49;0.57;;;0.57;;
84133;SDS011;74235;48.688;9.708;2024-03-02T07:58:17;1.60;;;1.25;;
84133;SDS011;74235;48.688;9.708;2024-03-02T08:00:48;1.95;;;1.65;;
84133;SDS011;74235;48.688;9.708;2024-03-02T08:03:19;2.47;;;1.70;;
84133;SDS011;74235;48.688;9.708;2024-03-02T08:05:47;2.00;;;1.60;;
84133;SDS011;74235;48.688;9.708;2024-03-02T08:08:14;1.60;;;1.08;;
84133;SDS011;74235;48.688;9.708;2024-03-02T08:13:10;0.90;;;0.90;;
84133;SDS011;74235;48.688;9.708;2024-03-02T08:15:37;2.50;;;1.05;;
84133;SDS011;74235;48.688;9.708;2024-03-02T08:18:06;0.93;;;0.85;;
84133;SDS011;74235;48.688;9.708;2024-03-02T08:20:34;1.20;;;0.85;;
84133;SDS011;74235;48.688;9.708;2024-03-02T08:23:02;0.60;;;0.60;;
84133;SDS011;74235;48.688;9.708;2024-03-02T08:25:30;0.43;;;0.43;;
84133;SDS011;74235;48.688;9.708;2024-03-02T08:27:58;0.82;;;0.82;;
84133;SDS011;74235;48.688;9.708;2024-03-02T08:30:25;0.80;;;0.65;;
84133;SDS011;74235;48.688;9.708;2024-03-02T08:32:53;0.93;;;0.75;;
84133;SDS011;74235;48.688;9.708;2024-03-02T08:37:50;1.10;;;0.82;;
84133;SDS011;74235;48.688;9.708;2024-03-02T08:42:45;0.52;;;0.52;;
84133;SDS011;74235;48.688;9.708;2024-03-02T08:45:14;0.60;;;0.60;;
84133;SDS011;74235;48.688;9.708;2024-03-02T08:47:42;0.60;;;0.60;;
84133;SDS011;74235;48.688;9.708;2024-03-02T08:50:11;0.60;;;0.60;;
84133;SDS011;74235;48.688;9.708;2024-03-02T08:52:40;0.57;;;0.57;;
84133;SDS011;74235;48.688;9.708;2024-03-02T08:55:07;0.55;;;0.55;;
84133;SDS011;74235;48.688;9.708;2024-03-02T08:57:36;1.13;;;0.63;;
84133;SDS011;74235;48.688;9.708;2024-03-02T09:02:32;0.73;;;0.73;;
84133;SDS011;74235;48.688;9.708;2024-03-02T09:05:00;0.50;;;0.50;;
84133;SDS011;74235;48.688;9.708;2024-03-02T09:07:28;0.40;;;0.40;;
84133;SDS011;74235;48.688;9.708;2024-03-02T09:09:57;0.77;;;0.77;;
84133;SDS011;74235;48.688;9.708;2024-03-02T09:12:24;0.60;;;0.60;;
84133;SDS011;74235;48.688;9.708;2024-03-02T09:17:19;0.57;;;0.52;;
84133;SDS011;74235;48.688;9.708;2024-03-02T09:22:14;0.75;;;0.73;;
84133;SDS011;74235;48.688;9.708;2024-03-02T09:24:42;0.57;;;0.57;;
84133;SDS011;74235;48.688;9.708;2024-03-02T09:27:11;1.85;;;1.00;;
84133;SDS011;74235;48.688;9.708;2024-03-02T09:29:39;5.35;;;4.70;;
84133;SDS011;74235;48.688;9.708;2024-03-02T09:34:34;5.20;;;3.50;;
84133;SDS011;74235;48.688;9.708;2024-03-02T09:39:31;3.30;;;2.85;;
84133;SDS011;74235;48.688;9.708;2024-03-02T09:44:27;3.05;;;2.47;;
84133;SDS011;74235;48.688;9.708;2024-03-02T09:46:55;2.97;;;2.17;;
84133;SDS011;74235;48.688;9.708;2024-03-02T09:49:23;3.70;;;2.10;;
84133;SDS011;74235;48.688;9.708;2024-03-02T09:51:51;2.83;;;1.85;;
84133;SDS011;74235;48.688;9.708;2024-03-02T09:54:18;4.10;;;1.63;;
84133;SDS011;74235;48.688;9.708;2024-03-02T09:56:50;6.05;;;1.60;;
84133;SDS011;74235;48.688;9.708;2024-03-02T09:59:18;3.50;;;1.70;;
84133;SDS011;74235;48.688;9.708;2024-03-02T10:01:59;2.97;;;1.13;;
84133;SDS011;74235;48.688;9.708;2024-03-02T10:04:28;2.08;;;1.55;;
84133;SDS011;74235;48.688;9.708;2024-03-02T10:07:09;2.70;;;1.13;;
84133;SDS011;74235;48.688;9.708;2024-03-02T10:09:41;1.45;;;1.17;;
84133;SDS011;74235;48.688;9.708;2024-03-02T10:12:10;1.67;;;1.30;;
84133;SDS011;74235;48.688;9.708;2024-03-02T10:14:39;3.72;;;1.13;;
84133;SDS011;74235;48.688;9.708;2024-03-02T10:17:09;1.35;;;1.17;;
84133;SDS011;74235;48.688;9.708;2024-03-02T10:19:38;1.85;;;1.30;;
84133;SDS011;74235;48.688;9.708;2024-03-02T10:22:07;1.55;;;0.95;;
84133;SDS011;74235;48.688;9.708;2024-03-02T10:24:36;3.33;;;0.98;;
84133;SDS011;74235;48.688;9.708;2024-03-02T10:27:09;1.92;;;1.20;;
84133;SDS011;74235;48.688;9.708;2024-03-02T10:29:38;1.00;;;0.90;;
84133;SDS011;74235;48.688;9.708;2024-03-02T10:32:11;0.77;;;0.70;;
84133;SDS011;74235;48.688;9.708;2024-03-02T10:34:40;3.20;;;0.80;;
84133;SDS011;74235;48.688;9.708;2024-03-02T10:37:08;0.80;;;0.50;;
84133;SDS011;74235;48.688;9.708;2024-03-02T10:39:38;1.65;;;0.70;;
84133;SDS011;74235;48.688;9.708;2024-03-02T10:42:08;1.05;;;0.88;;
84133;SDS011;74235;48.688;9.708;2024-03-02T10:44:36;0.60;;;0.60;;
84133;SDS011;74235;48.688;9.708;2024-03-02T10:47:04;0.73;;;0.73;;
84133;SDS011;74235;48.688;9.708;2024-03-02T10:49:34;0.85;;;0.77;;
84133;SDS011;74235;48.688;9.708;2024-03-02T10:52:02;0.90;;;0.75;;
84133;SDS011;74235;48.688;9.708;2024-03-02T10:54:31;0.65;;;0.65;;
84133;SDS011;74235;48.688;9.708;2024-03-02T10:57:04;1.20;;;0.88;;
84133;SDS011;74235;48.688;9.708;2024-03-02T10:59:37;0.82;;;0.82;;
84133;SDS011;74235;48.688;9.708;2024-03-02T11:02:10;0.63;;;0.55;;
84133;SDS011;74235;48.688;9.708;2024-03-02T11:04:40;0.40;;;0.40;;
84133;SDS011;74235;48.688;9.708;2024-03-02T11:07:10;0.60;;;0.60;;
84133;SDS011;74235;48.688;9.708;2024-03-02T11:09:39;0.70;;;0.68;;
84133;SDS011;74235;48.688;9.708;2024-03-02T11:12:09;0.40;;;0.40;;
84133;SDS011;74235;48.688;9.708;2024-03-02T11:14:40;0.70;;;0.70;;
84133;SDS011;74235;48.688;9.708;2024-03-02T11:17:13;0.60;;;0.60;;
84133;SDS011;74235;48.688;9.708;2024-03-02T11:19:46;0.47;;;0.47;;
84133;SDS011;74235;48.688;9.708;2024-03-02T11:22:15;0.43;;;0.43;;
84133;SDS011;74235;48.688;9.708;2024-03-02T11:24:47;0.50;;;0.50;;
84133;SDS011;74235;48.688;9.708;2024-03-02T11:27:20;0.50;;;0.50;;
84133;SDS011;74235;48.688;9.708;2024-03-02T11:33:24;1.27;;;0.68;;
84133;SDS011;74235;48.688;9.708;2024-03-02T11:35:54;0.70;;;0.50;;
84133;SDS011;74235;48.688;9.708;2024-03-02T11:38:23;0.50;;;0.50;;
84133;SDS011;74235;48.688;9.708;2024-03-02T11:40:55;0.82;;;0.80;;
84133;SDS011;74235;48.688;9.708;2024-03-02T11:43:23;0.50;;;0.50;;
84133;SDS011;74235;48.688;9.708;2024-03-02T11:45:59;0.90;;;0.60;;
84133;SDS011;74235;48.688;9.708;2024-03-02T11:48:27;0.40;;;0.40;;
84133;SDS011;74235;48.688;9.708;2024-03-02T11:50:57;0.55;;;0.55;;
84133;SDS011;74235;48.688;9.708;2024-03-02T11:53:27;0.50;;;0.50;;
84133;SDS011;74235;48.688;9.708;2024-03-02T11:56:02;0.70;;;0.70;;
84133;SDS011;74235;48.688;9.708;2024-03-02T11:58:30;0.57;;;0.40;;
84133;SDS011;74235;48.688;9.708;2024-03-02T12:01:00;0.50;;;0.50;;
84133;SDS011;74235;48.688;9.708;2024-03-02T12:03:28;0.40;;;0.40;;
84133;SDS011;74235;48.688;9.708;2024-03-02T12:05:56;0.60;;;0.60;;
84133;SDS011;74235;48.688;9.708;2024-03-02T12:08:24;0.35;;;0.35;;
84133;SDS011;74235;48.688;9.708;2024-03-02T12:10:56;0.95;;;0.60;;
84133;SDS011;74235;48.688;9.708;2024-03-02T12:13:24;0.52;;;0.52;;
84133;SDS011;74235;48.688;9.708;2024-03-02T12:15:53;0.60;;;0.60;;
84133;SDS011;74235;48.688;9.708;2024-03-02T12:18:23;0.80;;;0.80;;
84133;SDS011;74235;48.688;9.708;2024-03-02T12:20:51;0.55;;;0.50;;
84133;SDS011;74235;48.688;9.708;2024-03-02T12:23:20;0.52;;;0.52;;
84133;SDS011;74235;48.688;9.708;2024-03-02T12:25:48;0.47;;;0.47;;
84133;SDS011;74235;48.688;9.708;2024-03-02T12:28:16;0.47;;;0.47;;
84133;SDS011;74235;48.688;9.708;2024-03-02T12:30:44;0.50;;;0.50;;
84133;SDS011;74235;48.688;9.708;2024-03-02T12:33:15;0.28;;;0.28;;
84133;SDS011;74235;48.688;9.708;2024-03-02T12:35:45;0.38;;;0.38;;
84133;SDS011;74235;48.688;9.708;2024-03-02T12:38:13;0.25;;;0.25;;
84133;SDS011;74235;48.688;9.708;2024-03-02T12:40:42;0.50;;;0.50;;
84133;SDS011;74235;48.688;9.708;2024-03-02T12:45:38;0.60;;;0.60;;
84133;SDS011;74235;48.688;9.708;2024-03-02T12:48:06;0.35;;;0.35;;
84133;SDS011;74235;48.688;9.708;2024-03-02T12:50:34;1.35;;;0.55;;
84133;SDS011;74235;48.688;9.708;2024-03-02T12:53:03;0.50;;;0.50;;
84133;SDS011;74235;48.688;9.708;2024-03-02T12:55:31;0.40;;;0.40;;
84133;SDS011;74235;48.688;9.708;2024-03-02T13:00:27;0.65;;;0.57;;
84133;SDS011;74235;48.688;9.708;2024-03-02T13:02:56;0.60;;;0.60;;
84133;SDS011;74235;48.688;9.708;2024-03-02T13:05:29;0.73;;;0.50;;
84133;SDS011;74235;48.688;9.708;2024-03-02T13:07:58;0.45;;;0.45;;
84133;SDS011;74235;48.688;9.708;2024-03-02T13:10:28;0.13;;;0.13;;
84133;SDS011;74235;48.688;9.708;2024-03-02T13:12:56;1.13;;;0.50;;
84133;SDS011;74235;48.688;9.708;2024-03-02T13:15:25;0.40;;;0.40;;
84133;SDS011;74235;48.688;9.708;2024-03-02T13:17:58;0.60;;;0.60;;
84133;SDS011;74235;48.688;9.708;2024-03-02T13:20:29;0.57;;;0.50;;
84133;SDS011;74235;48.688;9.708;2024-03-02T13:22:58;0.40;;;0.40;;
84133;SDS011;74235;48.688;9.708;2024-03-02T13:25:26;0.40;;;0.40;;
84133;SDS011;74235;48.688;9.708;2024-03-02T13:27:58;0.60;;;0.60;;
84133;SDS011;74235;48.688;9.708;2024-03-02T13:30:26;0.43;;;0.43;;
84133;SDS011;74235;48.688;9.708;2024-03-02T13:32:54;0.45;;;0.45;;
84133;SDS011;74235;48.688;9.708;2024-03-02T13:37:49;0.40;;;0.40;;
84133;SDS011;74235;48.688;9.708;2024-03-02T13:40:17;0.90;;;0.90;;
84133;SDS011;74235;48.688;9.708;2024-03-02T13:42:47;1.73;;;1.20;;
84133;SDS011;74235;48.688;9.708;2024-03-02T13:45:17;1.30;;;1.20;;
84133;SDS011;74235;48.688;9.708;2024-03-02T13:47:45;2.03;;;1.55;;
84133;SDS011;74235;48.688;9.708;2024-03-02T13:50:13;2.47;;;1.77;;
84133;SDS011;74235;48.688;9.708;2024-03-02T13:52:41;2.33;;;1.75;;
84133;SDS011;74235;48.688;9.708;2024-03-02T13:55:09;2.53;;;1.58;;
84133;SDS011;74235;48.688;9.708;2024-03-02T14:00:05;1.50;;;1.30;;
84133;SDS011;74235;48.688;9.708;2024-03-02T14:02:42;1.48;;;1.30;;
84133;SDS011;74235;48.688;9.708;2024-03-02T14:05:10;1.60;;;1.27;;
84133;SDS011;74235;48.688;9.708;2024-03-02T14:07:39;1.80;;;1.63;;
84133;SDS011;74235;48.688;9.708;2024-03-02T14:10:07;1.80;;;1.33;;
84133;SDS011;74235;48.688;9.708;2024-03-02T14:12:35;1.98;;;1.50;;
84133;SDS011;74235;48.688;9.708;2024-03-02T14:15:04;2.10;;;1.50;;
84133;SDS011;74235;48.688;9.708;2024-03-02T14:17:32;3.80;;;1.77;;
84133;SDS011;74235;48.688;9.708;2024-03-02T14:20:01;2.40;;;1.85;;
84133;SDS011;74235;48.688;9.708;2024-03-02T14:22:32;2.10;;;1.60;;
84133;SDS011;74235;48.688;9.708;2024-03-02T14:25:01;1.80;;;1.42;;
84133;SDS011;74235;48.688;9.708;2024-03-02T14:27:28;4.43;;;1.48;;
84133;SDS011;74235;48.688;9.708;2024-03-02T14:30:19;7.45;;;1.67;;
84133;SDS011;74235;48.688;9.708;2024-03-02T14:35:15;2.53;;;1.80;;
84133;SDS011;74235;48.688;9.708;2024-03-02T14:37:43;2.60;;;1.67;;
84133;SDS011;74235;48.688;9.708;2024-03-02T14:40:11;2.35;;;1.80;;
84133;SDS011;74235;48.688;9.708;2024-03-02T14:42:40;2.40;;;1.83;;
84133;SDS011;74235;48.688;9.708;2024-03-02T14:45:09;3.42;;;2.00;;
84133;SDS011;74235;48.688;9.708;2024-03-02T14:50:04;1.90;;;1.60;;
84133;SDS011;74235;48.688;9.708;2024-03-02T14:52:34;2.85;;;1.73;;
84133;SDS011;74235;48.688;9.708;2024-03-02T14:55:02;2.03;;;1.70;;
84133;SDS011;74235;48.688;9.708;2024-03-02T14:57:31;2.42;;;1.83;;
84133;SDS011;74235;48.688;9.708;2024-03-02T15:02:26;1.95;;;1.63;;
84133;SDS011;74235;48.688;9.708;2024-03-02T15:04:55;2.30;;;1.83;;
84133;SDS011;74235;48.688;9.708;2024-03-02T15:07:23;2.00;;;1.65;;
84133;SDS011;74235;48.688;9.708;2024-03-02T15:12:21;2.55;;;1.80;;
84133;SDS011;74235;48.688;9.708;2024-03-02T15:14:50;2.92;;;1.95;;
84133;SDS011;74235;48.688;9.708;2024-03-02T15:17:17;2.20;;;1.70;;
84133;SDS011;74235;48.688;9.708;2024-03-02T15:19:45;3.17;;;2.00;;
84133;SDS011;74235;48.688;9.708;2024-03-02T15:24:41;4.00;;;2.13;;
84133;SDS011;74235;48.688;9.708;2024-03-02T15:27:10;2.75;;;1.80;;
84133;SDS011;74235;48.688;9.708;2024-03-02T15:29:38;2.45;;;1.80;;
84133;SDS011;74235;48.688;9.708;2024-03-02T15:32:05;2.65;;;2.00;;
84133;SDS011;74235;48.688;9.708;2024-03-02T15:34:34;2.50;;;1.90;;
84133;SDS011;74235;48.688;9.708;2024-03-02T15:37:02;3.67;;;1.90;;
84133;SDS011;74235;48.688;9.708;2024-03-02T15:39:31;2.92;;;1.70;;
84133;SDS011;74235;48.688;9.708;2024-03-02T15:42:00;2.28;;;1.80;;
84133;SDS011;74235;48.688;9.708;2024-03-02T15:44:30;2.47;;;1.63;;
84133;SDS011;74235;48.688;9.708;2024-03-02T15:46:59;2.92;;;1.70;;
84133;SDS011;74235;48.688;9.708;2024-03-02T15:51:55;2.35;;;1.90;;
84133;SDS011;74235;48.688;9.708;2024-03-02T15:54:23;4.88;;;3.70;;
84133;SDS011;74235;48.688;9.708;2024-03-02T15:56:50;4.15;;;3.05;;
84133;SDS011;74235;48.688;9.708;2024-03-02T15:59:18;3.08;;;2.13;;
84133;SDS011;74235;48.688;9.708;2024-03-02T16:04:15;2.63;;;1.80;;
84133;SDS011;74235;48.688;9.708;2024-03-02T16:06:43;1.98;;;1.67;;
84133;SDS011;74235;48.688;9.708;2024-03-02T16:09:11;2.13;;;1.60;;
84133;SDS011;74235;48.688;9.708;2024-03-02T16:11:39;5.28;;;1.70;;
84133;SDS011;74235;48.688;9.708;2024-03-02T16:14:07;4.35;;;1.40;;
84133;SDS011;74235;48.688;9.708;2024-03-02T16:19:04;1.42;;;1.20;;
84133;SDS011;74235;48.688;9.708;2024-03-02T16:24:10;1.80;;;1.00;;
84133;SDS011;74235;48.688;9.708;2024-03-02T16:26:38;1.13;;;0.95;;
84133;SDS011;74235;48.688;9.708;2024-03-02T16:29:06;3.50;;;1.20;;
84133;SDS011;74235;48.688;9.708;2024-03-02T16:31:33;1.00;;;0.80;;
84133;SDS011;74235;48.688;9.708;2024-03-02T16:36:30;2.17;;;0.98;;
84133;SDS011;74235;48.688;9.708;2024-03-02T16:39:00;0.80;;;0.80;;
84133;SDS011;74235;48.688;9.708;2024-03-02T16:41:27;1.00;;;0.77;;
84133;SDS011;74235;48.688;9.708;2024-03-02T16:43:57;0.52;;;0.52;;
84133;SDS011;74235;48.688;9.708;2024-03-02T16:46:24;0.52;;;0.52;;
84133;SDS011;74235;48.688;9.708;2024-03-02T16:48:52;0.60;;;0.60;;
84133;SDS011;74235;48.688;9.708;2024-03-02T16:51:20;1.50;;;0.98;;
84133;SDS011;74235;48.688;9.708;2024-03-02T16:56:16;1.70;;;1.40;;